Time;durP1;ratioP1;P1;durP2;ratioP2;P2;SDS_P1;SDS_P2;PMS_P1;PMS_P2;Temp;Humidity;BMP_temperature;BMP_pressure;BME280_temperature;BME280_humidity;BME280_pressure;Samples;Min_cycle;Max_cycle;Signal;HPM_P1;HPM_P2
2022/07/14 00:00:09;;;;;;;6.80;6.30;;;22.10;99.90;;;;;;5035853;28;20779;-75
2022/07/14 00:02:35;;;;;;;8.37;7.53;;;22.10;99.90;;;;;;5053880;28;20409;-72
2022/07/14 00:05:01;;;;;;;6.80;6.30;;;22.10;99.90;;;;;;5053977;28;20885;-72
2022/07/14 00:07:27;;;;;;;7.10;6.60;;;22.10;99.90;;;;;;4985149;28;20189;-72
2022/07/14 00:09:53;;;;;;;7.23;6.63;;;22.10;99.90;;;;;;5054348;28;20576;-72
2022/07/14 00:12:18;;;;;;;7.03;6.40;;;22.10;99.90;;;;;;5033611;28;20527;-72
2022/07/14 00:14:44;;;;;;;7.87;7.13;;;22.00;99.90;;;;;;5052149;28;20188;-72
2022/07/14 00:17:10;;;;;;;6.97;6.27;;;22.00;99.90;;;;;;5001789;28;20186;-75
2022/07/14 00:19:36;;;;;;;7.50;6.60;;;22.00;99.90;;;;;;5053133;28;20178;-72
2022/07/14 00:22:01;;;;;;;7.63;7.07;;;21.90;99.90;;;;;;5053672;28;20456;-71
2022/07/14 00:24:27;;;;;;;6.80;6.30;;;21.90;99.90;;;;;;5053247;28;20228;-71
2022/07/14 00:26:53;;;;;;;7.20;6.60;;;21.90;99.90;;;;;;5052625;28;20231;-71
2022/07/14 00:29:19;;;;;;;6.53;6.13;;;21.90;99.90;;;;;;5001069;28;20217;-71
2022/07/14 00:31:44;;;;;;;7.43;6.27;;;21.80;99.90;;;;;;5035798;28;20847;-72
2022/07/14 00:34:10;;;;;;;7.07;6.37;;;21.80;99.90;;;;;;5035049;28;20602;-75
2022/07/14 00:36:36;;;;;;;10.73;7.27;;;21.70;99.90;;;;;;5052400;28;20223;-71
2022/07/14 00:39:01;;;;;;;6.77;6.17;;;21.70;99.90;;;;;;5052571;28;20218;-71
2022/07/14 00:41:27;;;;;;;7.90;6.80;;;21.70;99.90;;;;;;5052089;28;20227;-72
2022/07/14 00:43:53;;;;;;;6.30;5.80;;;21.70;99.90;;;;;;5052587;28;20174;-72
2022/07/14 00:46:19;;;;;;;9.60;6.50;;;21.70;99.90;;;;;;5052433;28;20174;-72
2022/07/14 00:48:44;;;;;;;8.57;5.97;;;21.70;99.90;;;;;;5052807;28;20231;-72
2022/07/14 00:51:10;;;;;;;8.37;5.97;;;21.60;99.90;;;;;;5052942;28;20626;-75
2022/07/14 00:53:36;;;;;;;8.00;6.17;;;21.60;99.90;;;;;;5052641;28;20255;-72
2022/07/14 00:56:01;;;;;;;7.40;6.70;;;21.60;99.90;;;;;;5001488;28;20200;-72
2022/07/14 00:58:27;;;;;;;8.63;5.60;;;21.50;99.90;;;;;;5052335;28;20173;-72
2022/07/14 01:00:53;;;;;;;6.93;6.17;;;21.50;99.90;;;;;;5052797;28;20536;-72
2022/07/14 01:03:19;;;;;;;7.77;6.10;;;21.40;99.90;;;;;;5052411;28;20610;-72
2022/07/14 01:05:44;;;;;;;8.10;6.93;;;21.40;99.90;;;;;;5051801;28;20192;-72
2022/07/14 01:08:16;;;;;;;8.23;5.83;;;21.40;99.90;;;;;;5052299;28;20227;-75
2022/07/14 01:10:42;;;;;;;8.10;6.13;;;21.40;99.90;;;;;;5052834;28;20428;-72
2022/07/14 01:13:08;;;;;;;9.53;6.17;;;21.40;99.90;;;;;;5052131;28;20487;-72
2022/07/14 01:15:33;;;;;;;7.73;6.40;;;21.40;99.90;;;;;;5051551;28;21089;-72
2022/07/14 01:18:00;;;;;;;6.13;5.73;;;21.30;99.90;;;;;;5052610;28;20205;-72
2022/07/14 01:20:25;;;;;;;6.90;6.23;;;21.30;99.90;;;;;;5051569;28;20204;-72
2022/07/14 01:22:51;;;;;;;7.70;5.90;;;21.30;99.90;;;;;;5052778;28;20416;-72
2022/07/14 01:25:19;;;;;;;8.67;6.27;;;21.30;99.90;;;;;;5051051;28;20177;-72
2022/07/14 01:27:45;;;;;;;7.30;6.60;;;21.20;99.90;;;;;;5052045;28;20428;-72
2022/07/14 01:30:15;;;;;;;6.87;6.27;;;21.30;99.90;;;;;;5051524;28;20446;-72
2022/07/14 01:32:40;;;;;;;6.97;6.33;;;21.30;99.90;;;;;;5051936;28;20447;-72
2022/07/14 01:35:07;;;;;;;9.43;7.20;;;21.20;99.90;;;;;;5031349;28;20849;-72
2022/07/14 01:37:35;;;;;;;7.90;6.00;;;21.20;99.90;;;;;;5033129;28;20177;-72
2022/07/14 01:40:02;;;;;;;7.67;5.63;;;21.30;99.90;;;;;;5052283;28;20768;-71
2022/07/14 01:42:28;;;;;;;7.23;6.10;;;21.30;99.90;;;;;;5051239;28;20216;-72
2022/07/14 01:44:54;;;;;;;6.90;5.47;;;21.30;99.90;;;;;;5051710;28;20849;-72
2022/07/14 01:47:22;;;;;;;7.73;5.87;;;21.30;99.90;;;;;;5051118;28;20209;-72
2022/07/14 01:49:48;;;;;;;6.40;4.90;;;21.20;99.90;;;;;;5033412;28;20228;-72
2022/07/14 01:52:14;;;;;;;6.80;6.10;;;21.20;99.90;;;;;;5052000;28;20416;-75
2022/07/14 01:54:40;;;;;;;12.17;5.77;;;21.10;99.90;;;;;;5050556;28;20832;-72
2022/07/14 01:57:09;;;;;;;8.33;5.87;;;21.20;99.90;;;;;;5051822;28;20173;-71
2022/07/14 01:59:35;;;;;;;10.43;5.93;;;21.10;99.90;;;;;;5051522;28;20185;-72
2022/07/14 02:02:01;;;;;;;7.00;6.00;;;21.10;99.90;;;;;;5051774;28;20935;-72
2022/07/14 02:04:27;;;;;;;9.30;6.30;;;21.10;99.90;;;;;;5050093;28;20435;-72
2022/07/14 02:06:54;;;;;;;8.77;6.40;;;21.10;99.90;;;;;;5050848;28;20428;-72
2022/07/14 02:09:21;;;;;;;6.40;5.50;;;21.00;99.90;;;;;;5049378;28;20294;-72
2022/07/14 02:14:33;;;;;;;8.03;6.10;;;21.00;99.90;;;;;;5051419;28;20483;-71
2022/07/14 02:16:59;;;;;;;9.80;5.53;;;21.00;99.90;;;;;;5034119;28;20404;-72
2022/07/14 02:19:26;;;;;;;6.30;5.33;;;21.00;99.90;;;;;;5049569;28;20440;-72
2022/07/14 02:21:53;;;;;;;6.67;4.90;;;21.00;99.90;;;;;;5058077;28;20471;-72
2022/07/14 02:24:22;;;;;;;9.30;5.30;;;21.00;99.90;;;;;;5059495;28;20454;-74
2022/07/14 02:26:52;;;;;;;6.10;5.30;;;20.90;99.90;;;;;;5017748;28;20774;-72
2022/07/14 02:29:19;;;;;;;5.97;5.20;;;21.00;99.90;;;;;;5052551;28;20475;-76
2022/07/14 02:31:46;;;;;;;5.93;5.30;;;20.90;99.90;;;;;;5051349;28;20896;-72
2022/07/14 02:34:12;;;;;;;7.20;5.73;;;20.90;99.90;;;;;;5024491;28;20439;-72
2022/07/14 02:36:38;;;;;;;9.60;5.73;;;20.90;99.90;;;;;;5053313;28;20455;-72
2022/07/14 02:39:05;;;;;;;5.80;5.30;;;20.90;99.90;;;;;;5051983;28;20427;-72
2022/07/14 02:41:30;;;;;;;7.03;4.90;;;20.90;99.90;;;;;;5033271;28;20764;-72
2022/07/14 02:43:56;;;;;;;6.80;5.20;;;20.90;99.90;;;;;;5054232;28;20435;-72
2022/07/14 02:46:22;;;;;;;8.47;5.27;;;20.90;99.90;;;;;;5033106;28;20177;-73
2022/07/14 02:48:50;;;;;;;8.07;5.70;;;20.90;99.90;;;;;;5035769;28;20228;-72
2022/07/14 02:51:16;;;;;;;8.83;6.00;;;20.80;99.90;;;;;;5050723;28;20420;-73
2022/07/14 02:53:42;;;;;;;7.90;5.77;;;20.80;99.90;;;;;;5050716;28;20178;-72
2022/07/14 02:56:08;;;;;;;9.30;5.47;;;20.80;99.90;;;;;;5051628;28;20455;-72
2022/07/14 02:58:37;;;;;;;6.67;5.27;;;20.70;99.90;;;;;;5058357;28;20467;-72
2022/07/14 03:01:07;;;;;;;7.17;5.30;;;20.70;99.90;;;;;;5036035;28;20177;-72
2022/07/14 03:03:37;;;;;;;7.20;5.07;;;20.70;99.90;;;;;;5059499;28;20954;-72
2022/07/14 03:06:14;;;;;;;8.20;5.50;;;20.80;99.90;;;;;;5061957;28;20477;-72
2022/07/14 03:08:41;;;;;;;9.87;5.43;;;20.80;99.90;;;;;;5058510;28;20723;-74
2022/07/14 03:11:07;;;;;;;6.33;4.70;;;20.80;99.90;;;;;;5056132;28;20416;-74
2022/07/14 03:13:36;;;;;;;11.73;5.53;;;20.80;99.90;;;;;;5055860;28;20463;-74
2022/07/14 03:16:02;;;;;;;7.43;5.77;;;20.80;99.90;;;;;;5059859;28;20427;-74
2022/07/14 03:18:28;;;;;;;7.37;5.53;;;20.70;99.90;;;;;;5054087;28;20412;-74
2022/07/14 03:20:54;;;;;;;12.50;6.47;;;20.70;99.90;;;;;;5054778;28;20516;-74
2022/07/14 03:23:21;;;;;;;10.50;7.23;;;20.70;99.90;;;;;;5053687;28;20196;-76
2022/07/14 03:25:47;;;;;;;9.23;6.03;;;20.80;99.90;;;;;;5053573;28;20242;-74
2022/07/14 03:28:16;;;;;;;8.87;5.83;;;20.80;99.90;;;;;;5054627;28;20481;-74
2022/07/14 03:30:42;;;;;;;7.57;5.40;;;20.80;99.90;;;;;;5054155;28;20415;-74
2022/07/14 03:33:07;;;;;;;8.03;5.83;;;20.80;99.90;;;;;;5052449;28;20420;-74
2022/07/14 03:35:37;;;;;;;7.63;5.90;;;20.80;99.90;;;;;;5053762;28;20403;-74
2022/07/14 03:38:02;;;;;;;5.80;5.20;;;20.70;99.90;;;;;;5054549;28;20223;-74
2022/07/14 03:40:28;;;;;;;8.63;5.20;;;20.80;99.90;;;;;;5053643;28;20408;-74
2022/07/14 03:42:57;;;;;;;5.40;4.90;;;20.80;99.90;;;;;;5054552;28;20170;-74
2022/07/14 03:45:25;;;;;;;8.37;5.40;;;20.80;99.90;;;;;;5053918;28;20429;-76
2022/07/14 03:47:51;;;;;;;9.00;5.73;;;20.80;99.90;;;;;;5053596;28;20257;-74
2022/07/14 03:50:16;;;;;;;9.97;5.93;;;20.80;99.90;;;;;;5036522;28;20408;-74
2022/07/14 03:52:45;;;;;;;6.27;4.90;;;20.80;99.90;;;;;;5052501;28;20189;-74
2022/07/14 03:55:11;;;;;;;7.17;5.00;;;20.70;99.90;;;;;;5054270;28;20648;-75
2022/07/14 03:57:37;;;;;;;11.50;6.53;;;20.70;99.90;;;;;;5034618;28;20935;-75
2022/07/14 04:00:04;;;;;;;10.83;6.77;;;20.70;99.90;;;;;;5054152;28;20434;-75
2022/07/14 04:02:29;;;;;;;11.83;7.00;;;20.70;99.90;;;;;;5052945;28;20264;-72
2022/07/14 04:04:58;;;;;;;13.73;6.53;;;20.70;99.90;;;;;;5052934;28;20511;-72
2022/07/14 04:07:24;;;;;;;14.20;7.13;;;20.70;99.90;;;;;;5053445;28;20178;-74
2022/07/14 04:09:52;;;;;;;11.40;6.67;;;20.70;99.90;;;;;;5053167;28;20996;-72
2022/07/14 04:12:18;;;;;;;7.37;6.10;;;20.70;99.90;;;;;;5034245;28;20186;-71
2022/07/14 04:14:44;;;;;;;9.53;7.70;;;20.70;99.90;;;;;;5053050;28;21028;-72
2022/07/14 04:17:09;;;;;;;8.23;6.50;;;20.70;99.90;;;;;;5053798;28;20173;-72
2022/07/14 04:19:35;;;;;;;17.17;11.23;;;20.60;99.90;;;;;;5053016;28;20618;-72
2022/07/14 04:22:01;;;;;;;14.40;8.67;;;20.60;99.90;;;;;;5052830;28;20232;-71
2022/07/14 04:24:29;;;;;;;12.03;9.23;;;20.50;99.90;;;;;;5052891;28;20178;-72
2022/07/14 04:26:55;;;;;;;13.10;8.87;;;20.50;99.90;;;;;;5018073;28;20431;-72
2022/07/14 04:29:21;;;;;;;8.13;7.10;;;20.50;99.90;;;;;;5046807;28;20221;-72
2022/07/14 04:31:47;;;;;;;14.43;8.23;;;20.50;99.90;;;;;;5047253;28;20189;-72
2022/07/14 04:34:12;;;;;;;10.70;8.07;;;20.50;99.90;;;;;;5049898;28;20227;-72
2022/07/14 04:36:38;;;;;;;9.33;6.57;;;20.50;99.90;;;;;;5051527;28;20515;-72
2022/07/14 04:39:07;;;;;;;9.40;6.43;;;20.50;99.90;;;;;;5033876;28;20194;-71
2022/07/14 04:41:36;;;;;;;11.73;6.73;;;20.60;99.90;;;;;;5052533;28;20691;-71
2022/07/14 04:44:02;;;;;;;14.97;9.57;;;20.90;99.90;;;;;;5050732;28;20429;-71
2022/07/14 04:46:28;;;;;;;10.13;6.33;;;21.10;99.90;;;;;;5048110;28;20451;-72
2022/07/14 04:54:22;;;;;;;11.00;7.00;;;21.60;99.90;;;;;;5045209;28;20428;-75
2022/07/14 04:56:48;;;;;;;8.70;5.63;;;21.70;99.90;;;;;;5039649;28;20958;-74
2022/07/14 04:59:13;;;;;;;8.90;5.93;;;21.80;99.90;;;;;;5045336;28;20275;-75
2022/07/14 05:01:39;;;;;;;8.83;5.57;;;21.90;99.90;;;;;;5036639;28;20206;-73
2022/07/14 05:04:05;;;;;;;8.87;6.23;;;22.00;99.90;;;;;;5042451;28;20247;-73
2022/07/14 05:06:31;;;;;;;7.13;5.60;;;22.00;99.90;;;;;;5041481;28;20646;-74
2022/07/14 05:08:56;;;;;;;18.93;12.10;;;22.10;99.90;;;;;;5048794;28;20215;-74
2022/07/14 05:11:22;;;;;;;7.47;6.67;;;22.20;99.90;;;;;;5021219;28;20202;-76
2022/07/14 05:13:51;;;;;;;9.90;7.23;;;22.20;99.90;;;;;;5039704;28;20373;-74
2022/07/14 05:16:16;;;;;;;9.00;5.80;;;22.30;99.00;;;;;;5043555;28;20193;-75
2022/07/14 05:18:42;;;;;;;9.00;6.40;;;22.30;99.90;;;;;;5043776;28;20440;-73
2022/07/14 05:21:08;;;;;;;10.67;6.30;;;22.30;99.90;;;;;;5048707;28;20217;-74
2022/07/14 05:23:34;;;;;;;8.23;5.83;;;22.40;99.90;;;;;;5050694;28;20564;-75
2022/07/14 05:25:59;;;;;;;9.37;6.77;;;22.40;99.10;;;;;;5049228;28;20174;-74
2022/07/14 05:28:26;;;;;;;8.20;5.37;;;22.40;99.70;;;;;;5051584;28;20463;-73
2022/07/14 05:30:57;;;;;;;10.87;5.87;;;22.40;99.90;;;;;;5043960;28;20197;-74
2022/07/14 05:33:23;;;;;;;9.00;7.27;;;22.40;98.20;;;;;;5043170;28;20441;-73
2022/07/14 05:35:49;;;;;;;11.33;6.40;;;22.40;97.90;;;;;;5048306;28;20586;-74
2022/07/14 05:38:14;;;;;;;9.17;6.90;;;22.30;97.60;;;;;;5049549;28;20529;-74
2022/07/14 05:40:40;;;;;;;13.17;7.20;;;22.30;97.90;;;;;;5046267;28;20223;-74
2022/07/14 05:43:06;;;;;;;7.90;5.13;;;22.30;98.00;;;;;;5048000;28;20253;-75
2022/07/14 05:45:32;;;;;;;12.27;6.43;;;22.20;98.00;;;;;;5048828;28;20186;-74
2022/07/14 05:47:58;;;;;;;12.23;5.73;;;22.30;98.20;;;;;;5048934;28;20327;-74
2022/07/14 05:50:24;;;;;;;7.80;5.00;;;22.20;98.10;;;;;;5048369;28;20534;-74
2022/07/14 05:52:49;;;;;;;7.97;5.13;;;22.30;98.40;;;;;;5033140;28;20181;-74
2022/07/14 05:55:15;;;;;;;18.73;9.23;;;22.30;98.20;;;;;;5047690;28;20621;-75
2022/07/14 05:57:41;;;;;;;12.30;6.10;;;22.20;99.00;;;;;;5041472;28;20265;-74
2022/07/14 06:00:07;;;;;;;8.13;5.40;;;22.20;98.90;;;;;;5031084;28;20182;-74
2022/07/14 06:02:34;;;;;;;8.93;5.90;;;22.00;98.50;;;;;;5046663;28;20182;-74
2022/07/14 06:05:02;;;;;;;13.73;5.90;;;22.00;98.70;;;;;;5039304;28;20531;-74
2022/07/14 06:07:28;;;;;;;7.13;5.97;;;22.00;98.80;;;;;;5045935;28;20563;-75
2022/07/14 06:09:54;;;;;;;8.60;5.07;;;22.00;98.90;;;;;;5049032;28;20315;-74
2022/07/14 06:12:19;;;;;;;12.30;6.57;;;22.00;98.60;;;;;;5049301;28;20663;-74
2022/07/14 06:14:45;;;;;;;13.10;8.80;;;22.10;98.70;;;;;;5048508;28;20177;-74
2022/07/14 06:17:11;;;;;;;13.07;6.80;;;22.10;99.10;;;;;;5040116;28;20630;-75
2022/07/14 06:19:37;;;;;;;10.80;6.20;;;22.20;99.50;;;;;;5033422;28;20273;-75
2022/07/14 06:22:06;;;;;;;8.97;5.53;;;22.20;99.10;;;;;;5067555;28;20220;-74
2022/07/14 06:24:33;;;;;;;5.70;5.13;;;22.30;99.00;;;;;;5038422;28;20231;-77
2022/07/14 06:26:58;;;;;;;8.33;7.50;;;22.30;98.50;;;;;;5034051;28;20433;-73
2022/07/14 06:29:24;;;;;;;9.87;7.23;;;22.30;99.00;;;;;;5047360;28;20460;-74
2022/07/14 06:31:55;;;;;;;7.10;4.90;;;22.40;98.90;;;;;;5030489;28;20819;-74
2022/07/14 06:34:24;;;;;;;7.93;7.00;;;22.40;98.80;;;;;;5022085;28;20534;-74
2022/07/14 06:36:50;;;;;;;7.40;4.90;;;22.40;98.60;;;;;;5034317;28;20442;-74
2022/07/14 06:39:16;;;;;;;9.50;7.33;;;22.50;97.80;;;;;;5035229;28;20433;-74
2022/07/14 06:41:42;;;;;;;10.53;6.97;;;22.60;98.10;;;;;;5032366;28;20425;-74
2022/07/14 06:44:08;;;;;;;13.30;5.53;;;22.60;98.10;;;;;;5030574;28;20273;-73
2022/07/14 06:46:38;;;;;;;9.03;5.57;;;22.60;97.80;;;;;;5033018;28;20432;-77
2022/07/14 06:49:06;;;;;;;8.17;5.37;;;22.60;98.10;;;;;;5033361;28;20280;-77
2022/07/14 06:51:35;;;;;;;11.40;5.80;;;22.60;98.40;;;;;;5049398;28;20516;-77
2022/07/14 06:54:01;;;;;;;10.80;5.70;;;22.60;97.90;;;;;;5046393;28;20428;-75
2022/07/14 06:56:26;;;;;;;13.10;5.40;;;22.60;98.20;;;;;;5034717;28;20819;-74
2022/07/14 06:58:52;;;;;;;11.73;5.47;;;22.70;98.40;;;;;;5033897;28;20193;-74
2022/07/14 07:01:18;;;;;;;11.47;5.20;;;22.70;97.80;;;;;;5037665;28;20654;-74
2022/07/14 07:03:43;;;;;;;10.20;6.27;;;22.70;97.70;;;;;;5054516;28;20547;-74
2022/07/14 07:08:53;;;;;;;9.07;5.83;;;22.70;97.50;;;;;;5049006;28;20764;-74
2022/07/14 07:11:19;;;;;;;9.17;5.40;;;22.70;98.30;;;;;;5039840;28;20452;-74
2022/07/14 07:13:45;;;;;;;9.80;6.87;;;22.70;97.70;;;;;;5039264;28;20216;-74
2022/07/14 07:16:11;;;;;;;12.30;6.57;;;22.70;97.90;;;;;;5042486;28;20230;-73
2022/07/14 07:18:37;;;;;;;9.40;6.77;;;22.70;98.30;;;;;;5035962;28;20185;-77
2022/07/14 07:21:04;;;;;;;8.27;5.57;;;22.70;97.80;;;;;;5042811;28;20320;-75
2022/07/14 07:23:32;;;;;;;8.73;6.20;;;22.80;97.80;;;;;;5050174;28;20435;-74
2022/07/14 07:25:58;;;;;;;11.93;7.03;;;22.80;97.00;;;;;;5050572;28;20923;-74
2022/07/14 07:28:24;;;;;;;7.27;6.00;;;22.80;97.80;;;;;;5049848;28;22543;-73
2022/07/14 07:30:50;;;;;;;8.90;6.40;;;22.80;97.20;;;;;;5038531;28;20472;-73
2022/07/14 07:33:16;;;;;;;8.80;5.70;;;22.90;97.40;;;;;;5054671;28;20177;-73
2022/07/14 07:35:45;;;;;;;15.30;6.27;;;22.90;97.30;;;;;;5047378;28;20200;-73
2022/07/14 07:38:12;;;;;;;9.17;5.43;;;22.90;97.60;;;;;;5053951;28;20200;-73
2022/07/14 07:40:37;;;;;;;7.83;6.90;;;22.90;97.30;;;;;;5053501;28;20774;-77
2022/07/14 07:43:03;;;;;;;10.47;6.03;;;23.00;97.70;;;;;;5053486;28;20416;-73
2022/07/14 07:45:29;;;;;;;10.10;5.90;;;23.00;97.00;;;;;;5054677;28;20169;-73
2022/07/14 07:47:54;;;;;;;10.00;5.50;;;23.00;97.10;;;;;;5009520;28;20302;-73
2022/07/14 07:50:23;;;;;;;14.57;6.40;;;23.10;96.50;;;;;;5050612;28;20185;-73
2022/07/14 07:52:48;;;;;;;14.80;6.30;;;23.10;97.20;;;;;;5053380;28;20798;-73
2022/07/14 07:55:14;;;;;;;7.93;5.97;;;23.10;98.00;;;;;;5054234;28;20182;-74
2022/07/14 07:57:40;;;;;;;11.03;8.50;;;23.10;96.90;;;;;;5037711;28;20274;-74
2022/07/14 08:00:06;;;;;;;11.40;8.27;;;23.10;97.40;;;;;;5048001;28;20181;-74
2022/07/14 08:02:32;;;;;;;9.53;8.70;;;23.10;96.50;;;;;;5045632;28;20181;-73
2022/07/14 08:04:58;;;;;;;7.80;6.97;;;23.20;96.90;;;;;;5046312;28;20516;-74
2022/07/14 08:07:24;;;;;;;9.87;8.00;;;23.20;97.30;;;;;;5046071;28;20182;-73
2022/07/14 08:09:49;;;;;;;10.27;7.50;;;23.30;97.10;;;;;;5039801;28;20222;-77
2022/07/14 08:12:15;;;;;;;10.73;9.00;;;23.30;96.40;;;;;;5048935;28;20276;-74
2022/07/14 08:14:51;;;;;;;11.20;7.63;;;23.30;96.50;;;;;;5051981;28;20695;-75
2022/07/14 08:17:18;;;;;;;12.97;7.90;;;23.30;96.00;;;;;;5049584;28;20184;-75
2022/07/14 08:19:44;;;;;;;10.90;9.20;;;23.20;96.30;;;;;;5052820;28;20435;-74
2022/07/14 08:22:10;;;;;;;13.77;9.70;;;23.20;96.40;;;;;;5069484;28;20497;-77
2022/07/14 08:24:36;;;;;;;14.63;10.50;;;23.10;95.60;;;;;;5070457;28;20257;-75
2022/07/14 08:27:03;;;;;;;12.03;9.80;;;23.10;96.00;;;;;;5071141;28;20899;-75
2022/07/14 08:29:29;;;;;;;9.83;8.93;;;23.10;95.70;;;;;;5058219;28;20220;-75
2022/07/14 08:31:55;;;;;;;13.57;9.90;;;23.00;95.70;;;;;;5034884;28;20786;-75
2022/07/14 08:34:21;;;;;;;10.43;8.83;;;22.90;94.80;;;;;;5063689;28;20430;-75
2022/07/14 08:36:48;;;;;;;11.70;9.80;;;22.80;96.10;;;;;;5070415;28;20181;-74
2022/07/14 08:39:15;;;;;;;12.67;9.50;;;22.70;95.10;;;;;;5074418;28;20419;-74
2022/07/14 08:41:41;;;;;;;11.07;10.03;;;22.70;95.50;;;;;;5087723;28;20427;-79
2022/07/14 08:44:08;;;;;;;10.03;8.80;;;22.60;96.20;;;;;;5070803;28;20466;-72
2022/07/14 08:46:38;;;;;;;9.80;9.00;;;22.50;96.20;;;;;;5068678;28;20446;-70
2022/07/14 08:49:06;;;;;;;10.23;8.87;;;22.60;95.60;;;;;;5070427;28;20579;-71
2022/07/14 08:51:33;;;;;;;11.63;8.90;;;22.60;95.70;;;;;;5066641;28;20432;-71
2022/07/14 08:54:01;;;;;;;12.63;8.33;;;22.60;95.50;;;;;;5052385;28;20509;-71
2022/07/14 08:56:26;;;;;;;9.97;8.97;;;22.70;95.90;;;;;;5058844;28;20508;-70
2022/07/14 08:58:53;;;;;;;14.53;8.83;;;22.80;95.80;;;;;;5069645;28;20518;-71
2022/07/14 09:01:18;;;;;;;9.23;8.30;;;22.80;95.70;;;;;;5073163;28;20277;-71
2022/07/14 09:03:44;;;;;;;8.20;7.30;;;22.90;95.70;;;;;;5072362;28;20913;-72
2022/07/14 09:06:10;;;;;;;8.57;7.37;;;23.00;96.20;;;;;;5071612;28;20230;-71
2022/07/14 09:08:54;;;;;;;9.47;6.70;;;23.10;94.30;;;;;;5072608;28;20212;-71
2022/07/14 09:11:20;;;;;;;7.93;7.10;;;23.20;93.00;;;;;;5072635;28;20755;-71
2022/07/14 09:13:46;;;;;;;7.40;6.20;;;23.30;93.70;;;;;;5072125;28;20790;-71
2022/07/14 09:16:23;;;;;;;6.60;6.07;;;23.50;93.60;;;;;;5048064;28;20574;-71
2022/07/14 09:19:05;;;;;;;13.73;6.53;;;23.50;92.00;;;;;;5031058;28;20427;-71
2022/07/14 09:21:31;;;;;;;6.57;5.93;;;23.60;91.20;;;;;;5016752;28;20825;-71
2022/07/14 09:23:58;;;;;;;7.93;7.23;;;23.70;92.10;;;;;;5049573;28;20431;-71
2022/07/14 09:26:24;;;;;;;8.20;7.00;;;23.70;91.20;;;;;;5050419;28;20178;-71
2022/07/14 09:28:51;;;;;;;9.33;6.67;;;23.80;89.40;;;;;;5047286;28;20498;-71
2022/07/14 09:31:21;;;;;;;8.87;5.90;;;23.90;90.70;;;;;;5050313;28;20428;-71
2022/07/14 09:33:49;;;;;;;7.17;5.90;;;24.00;90.20;;;;;;5048320;28;20943;-71
2022/07/14 09:36:26;;;;;;;7.63;5.87;;;24.10;91.80;;;;;;5050092;28;20419;-71
2022/07/14 09:38:52;;;;;;;6.63;4.80;;;24.30;90.00;;;;;;5049599;28;20423;-71
2022/07/14 09:41:18;;;;;;;5.67;4.97;;;24.40;90.00;;;;;;5049888;28;20451;-71
2022/07/14 09:44:06;;;;;;;6.77;6.07;;;24.40;87.40;;;;;;5048563;28;20561;-73
2022/07/14 09:46:48;;;;;;;5.83;4.93;;;24.50;87.00;;;;;;5049446;28;20443;-71
2022/07/14 09:49:16;;;;;;;6.30;4.20;;;24.60;88.70;;;;;;5048804;28;20843;-71
2022/07/14 09:52:02;;;;;;;7.73;4.37;;;24.70;88.00;;;;;;5049793;28;20428;-79
2022/07/14 09:54:41;;;;;;;6.20;5.20;;;24.90;87.10;;;;;;5068412;28;20419;-71
2022/07/14 09:57:12;;;;;;;5.90;4.90;;;25.10;85.50;;;;;;5072216;28;20399;-71
2022/07/14 10:00:19;;;;;;;4.83;4.00;;;25.30;82.00;;;;;;5071897;28;20438;-71
2022/07/14 10:02:45;;;;;;;3.80;3.50;;;25.40;78.30;;;;;;5071973;28;20395;-79
2022/07/14 10:05:13;;;;;;;7.57;4.00;;;25.50;76.10;;;;;;5072338;28;20415;-71
2022/07/14 10:07:41;;;;;;;4.87;4.40;;;25.60;69.60;;;;;;5070831;28;20431;-71
2022/07/14 10:10:09;;;;;;;4.47;4.17;;;25.60;71.40;;;;;;5072131;28;20451;-71
2022/07/14 10:12:37;;;;;;;6.37;4.00;;;25.60;69.80;;;;;;5075175;28;20415;-71
2022/07/14 10:15:05;;;;;;;6.60;5.67;;;25.60;71.20;;;;;;5075370;28;20493;-71
2022/07/14 10:17:36;;;;;;;6.60;5.20;;;25.50;74.70;;;;;;5075395;28;20399;-71
2022/07/14 10:20:04;;;;;;;6.17;4.97;;;25.60;74.50;;;;;;5075496;28;20427;-71
2022/07/14 10:22:30;;;;;;;5.77;5.37;;;25.60;74.70;;;;;;5074429;28;20459;-71
2022/07/14 10:24:57;;;;;;;4.53;4.13;;;25.90;75.40;;;;;;5075557;28;20410;-71
2022/07/14 10:27:24;;;;;;;6.60;5.37;;;25.90;73.40;;;;;;5076382;28;20804;-71
2022/07/14 10:29:52;;;;;;;5.87;5.37;;;26.00;71.90;;;;;;5075210;28;20470;-71
2022/07/14 10:32:22;;;;;;;7.70;5.77;;;26.10;72.20;;;;;;5076245;28;20801;-71
2022/07/14 10:35:21;;;;;;;4.83;3.93;;;26.20;72.00;;;;;;5075436;28;20399;-71
2022/07/14 10:38:11;;;;;;;4.50;3.20;;;26.40;72.20;;;;;;5074981;28;20458;-80
2022/07/14 10:41:04;;;;;;;4.80;3.40;;;26.50;69.60;;;;;;5076048;28;20392;-71
2022/07/14 10:43:48;;;;;;;4.30;2.93;;;26.60;67.00;;;;;;5075859;28;20859;-71
2022/07/14 10:46:39;;;;;;;3.30;2.87;;;26.80;69.70;;;;;;5075329;28;20388;-71
2022/07/14 10:49:08;;;;;;;3.43;3.13;;;26.90;64.50;;;;;;5073892;28;20496;-71
2022/07/14 10:51:42;;;;;;;4.60;2.83;;;27.10;67.40;;;;;;5075180;28;20412;-71
2022/07/14 10:54:11;;;;;;;2.90;2.63;;;27.20;64.90;;;;;;5074873;28;20425;-70
2022/07/14 10:56:39;;;;;;;3.57;3.20;;;27.30;65.20;;;;;;5075629;28;20403;-71
2022/07/14 10:59:26;;;;;;;2.97;2.73;;;27.40;62.80;;;;;;5037544;28;20810;-71
2022/07/14 11:02:10;;;;;;;4.80;3.13;;;27.50;63.60;;;;;;5074060;28;20480;-71
2022/07/14 11:07:38;;;;;;;2.70;2.50;;;27.50;63.70;;;;;;5074579;28;20916;-71
2022/07/14 11:10:25;;;;;;;3.50;2.30;;;27.50;61.60;;;;;;5074711;28;20487;-71
2022/07/14 11:12:59;;;;;;;3.67;2.70;;;27.50;59.60;;;;;;5075017;28;20755;-71
2022/07/14 11:15:43;;;;;;;3.27;3.07;;;27.50;64.80;;;;;;5074931;28;20868;-71
2022/07/14 11:18:18;;;;;;;5.93;3.30;;;27.60;61.40;;;;;;5075002;28;20392;-70
2022/07/14 11:20:47;;;;;;;3.70;3.37;;;27.70;60.30;;;;;;5069569;28;20473;-71
2022/07/14 11:23:24;;;;;;;3.00;2.80;;;27.80;63.00;;;;;;5055062;28;20427;-70
2022/07/14 11:25:52;;;;;;;3.40;3.13;;;27.80;61.70;;;;;;5053883;28;20443;-72
2022/07/14 11:28:43;;;;;;;4.53;3.70;;;27.90;61.10;;;;;;5055307;28;20813;-71
2022/07/14 11:31:10;;;;;;;3.93;2.90;;;28.10;62.60;;;;;;5036904;28;20416;-71
2022/07/14 11:36:17;;;;;;;2.87;2.70;;;28.20;61.00;;;;;;5055186;28;20507;-71
2022/07/14 11:36:23;;;;;;;4.73;2.70;;;28.30;60.20;;;;;;5053570;28;20459;-70
2022/07/14 11:38:49;;;;;;;2.80;2.60;;;28.30;59.50;;;;;;5054373;28;20401;-72
2022/07/14 11:41:15;;;;;;;3.13;2.90;;;28.30;57.10;;;;;;5055128;28;20872;-71
2022/07/14 11:43:50;;;;;;;3.97;3.57;;;28.40;58.30;;;;;;5055115;28;20174;-71
2022/07/14 11:46:20;;;;;;;4.27;3.50;;;28.40;57.30;;;;;;5054063;28;20186;-71
2022/07/14 11:48:48;;;;;;;4.40;4.00;;;28.40;56.10;;;;;;5054846;28;20447;-71
2022/07/14 11:51:22;;;;;;;4.70;4.50;;;28.40;58.60;;;;;;5054775;28;20477;-71
2022/07/14 11:53:57;;;;;;;4.40;4.20;;;28.40;58.00;;;;;;5054610;28;20419;-71
2022/07/14 11:56:23;;;;;;;5.17;4.87;;;28.50;59.30;;;;;;5035886;28;20427;-71
2022/07/14 11:58:51;;;;;;;5.93;4.43;;;28.50;58.40;;;;;;5019820;28;20899;-83
2022/07/14 12:01:17;;;;;;;3.60;3.20;;;28.40;58.00;;;;;;5054373;28;20485;-71
2022/07/14 12:03:44;;;;;;;2.80;2.60;;;28.40;59.20;;;;;;5054583;28;20415;-71
2022/07/14 12:06:10;;;;;;;7.83;3.70;;;28.40;58.30;;;;;;5053173;28;20439;-71
2022/07/14 12:08:37;;;;;;;3.40;2.40;;;28.50;58.00;;;;;;5054845;28;20444;-71
2022/07/14 12:11:09;;;;;;;5.00;3.37;;;28.60;57.90;;;;;;5053892;28;20448;-71
2022/07/14 12:13:48;;;;;;;4.80;4.50;;;28.60;57.00;;;;;;5019937;28;20978;-71
2022/07/14 12:16:15;;;;;;;4.53;4.23;;;28.60;58.60;;;;;;5052938;28;20511;-71
2022/07/14 12:18:40;;;;;;;4.10;4.00;;;28.60;56.90;;;;;;5053933;28;20812;-71
2022/07/14 12:21:06;;;;;;;4.27;3.87;;;28.60;56.20;;;;;;5053122;28;20482;-71
2022/07/14 12:23:32;;;;;;;3.53;3.30;;;28.50;56.50;;;;;;5054244;28;20739;-71
2022/07/14 12:26:01;;;;;;;3.77;3.40;;;28.50;55.60;;;;;;5051872;28;20196;-71
2022/07/14 12:28:27;;;;;;;5.03;4.70;;;28.30;56.00;;;;;;5054209;28;20204;-71
2022/07/14 12:30:57;;;;;;;3.63;3.33;;;28.30;57.90;;;;;;5053508;28;20502;-72
2022/07/14 12:33:28;;;;;;;5.00;4.60;;;28.20;58.00;;;;;;5051859;28;20775;-71
2022/07/14 12:35:59;;;;;;;2.50;2.37;;;28.20;58.50;;;;;;5053550;28;20404;-72
2022/07/14 12:38:28;;;;;;;4.37;4.00;;;28.20;57.50;;;;;;5035982;28;20420;-70
2022/07/14 12:40:59;;;;;;;5.30;5.03;;;28.10;55.20;;;;;;5053380;28;20412;-72
2022/07/14 12:43:26;;;;;;;5.20;4.80;;;28.00;57.00;;;;;;5053242;28;20435;-71
2022/07/14 12:46:07;;;;;;;3.00;2.80;;;28.00;58.90;;;;;;5035771;28;20413;-85
2022/07/14 12:48:36;;;;;;;6.00;5.60;;;27.80;58.80;;;;;;5053595;28;20830;-71
2022/07/14 12:51:22;;;;;;;4.00;3.67;;;27.70;56.80;;;;;;5053176;28;20895;-71
2022/07/14 12:54:05;;;;;;;4.07;3.87;;;27.70;56.10;;;;;;5052787;28;20497;-71
2022/07/14 12:56:41;;;;;;;4.00;3.80;;;27.70;57.00;;;;;;5053652;28;20404;-71
2022/07/14 12:59:10;;;;;;;3.20;2.90;;;27.70;58.00;;;;;;5051715;28;20911;-71
2022/07/14 13:01:47;;;;;;;5.03;3.93;;;27.70;57.70;;;;;;5053533;28;20756;-71
2022/07/14 13:04:26;;;;;;;3.60;3.37;;;27.70;57.00;;;;;;5034987;28;20424;-71